Cairo, GA (39827)

1:27 AM EST on January 19, 2017 (GMT -0500)
Deerhaven | | Change Station

Elev 236 ft 30.86 °N, 84.15 °W | Updated 32 seconds ago

Mostly Cloudy
Mostly Cloudy
55.7 °F
Feels Like 55.7 °F
N
0.0
Wind Variable Wind from SSW

Today
High -- | Low -- °F
--% Chance of Precip.
Yesterday
High -- | Low -- °F
Precip. -- in
Pressure 30.09 in
Visibility 0.2 miles
Clouds Overcast 200 ft
Dew Point 55 °F
Humidity 98%
Rainfall 0.00 in
Snow Depth Not available.
7:34 AM 6:01 PM
Waning Gibbous, 56% visible
METAR KTVI 190615Z AUTO 00000KT 1/4SM FG OVC002 13/13 A3009 RMK AO2
Pressure 30.09 in
Visibility 0.2 miles
Clouds Overcast 200 ft
Dew Point 55 °F
Humidity 98%
Rainfall 0.00 in
Snow Depth Not available.
7:34 AM 6:01 PM
Waning Gibbous, 56% visible
METAR KTVI 190615Z AUTO 00000KT 1/4SM FG OVC002 13/13 A3009 RMK AO2

Get Your Daily Forecast Email!

Thanks for signing up!

Be on the lookout for a verification email in your inbox.

You'll start receiving the daily forecast at 8 AM.

×

10-Day Weather Forecast

Almanac

Astronomy

Jan. 19, 2017 Rise Set
Actual Time
Civil Twilight
Nautical Twilight
Astronomical Twilight
Moon
Length of Visible Light
Length of Day
Tomorrow will be .
, % of the Moon is Illuminated

Today's Extremes

State Highs State Lows

Community

WunderPhotos

Upload Photos

1,962,540 photos uploaded!

WunderBlog® & News

Nearby

Air Quality

  Air Quality AQ Index Pollutant
Not available.

Snow Depth

Station Depth Elevation

Earthquake Activity

City Distance Mag. Time & Date
Minimum magnitude displayed is 2.5.

Coastal Water Temperatures

Place Temperature

Stations

Nearby Weather Stations

Station Location Temp. Windchill Dew Point Humidity Wind Precip. Elev Updated Type
                   

Watches & Warnings

Dense Fog Advisory
Issued: 10:46 PM CST Jan. 18, 2017 – National Weather Service

... Dense fog advisory in effect until 11 am EST /10 am CST/
Thursday...

The National Weather Service in Tallahassee has issued a dense
fog advisory... which is in effect until 11 am EST /10 am CST/
Thursday.

* Visibility... a quarter of a mile or less.

Precautionary/preparedness actions...

A dense fog advisory means visibilities will frequently be
reduced to less than one quarter mile. If driving... slow down...
use your headlights... and leave plenty of distance ahead of you.




Marine Fog Advisory
Issued: 11:47 PM EST Jan. 18, 2017 – National Weather Service

... Dense fog advisory in effect until 11 am EST Thursday...

The National Weather Service in Tallahassee has issued a dense
fog advisory... which is in effect until 11 am EST Thursday.

* Visibility... one mile or less.

Precautionary/preparedness actions...

A dense fog advisory means visibilities will frequently be
reduced to less than one mile. Inexperienced mariners...
especially those operating smaller vessels should avoid
navigating in these conditions.